This is the latest recevied weather packets stored in our database for station/object N3LF. If no packets are shown the sender has not sent any weather packets the latest 10 day(s).
| Time | Temp. | Humidity | Pressure | Rain* | Wind** | Luminosity | Snow |
|---|---|---|---|---|---|---|---|
| 1777560246 | 14.44° C | 47% | 1020.5 hPa | 0 mm | - | 511 W/m² | - |
| 1777559943 | 14.44° C | 48% | 1020.4 hPa | 0 mm | - | 498 W/m² | - |
| 1777559637 | 13.89° C | 51% | 1020.6 hPa | 0 mm | - | 486 W/m² | - |
| 1777559336 | 14.44° C | 48% | 1020.3 hPa | 0 mm | - | 473 W/m² | - |
| 1777559031 | 13.89° C | 49% | 1020.5 hPa | 0 mm | - | 459 W/m² | - |
| 1777558727 | 14.44° C | 48% | 1020.7 hPa | 0 mm | - | 444 W/m² | - |
| 1777558423 | 14.44° C | 51% | 1020.7 hPa | 0 mm | - | 430 W/m² | - |
| 1777558119 | 13.89° C | 52% | 1020.7 hPa | 0 mm | - | 416 W/m² | - |
| 1777557816 | 13.89° C | 56% | 1020.6 hPa | 0 mm | - | 404 W/m² | - |
| 1777557513 | 13.89° C | 53% | 1020.5 hPa | 0 mm | - | 391 W/m² | - |
| 1777557209 | 13.33° C | 56% | 1020.3 hPa | 0 mm | - | 376 W/m² | - |
| 1777556905 | 13.33° C | 56% | 1020.4 hPa | 0 mm | - | 361 W/m² | - |
| 1777556601 | 13.33° C | 56% | 1020.2 hPa | 0 mm | - | 347 W/m² | - |
| 1777556301 | 13.33° C | 58% | 1020.2 hPa | 0 mm | - | 332 W/m² | - |
| 1777555998 | 13.33° C | 58% | 1020.2 hPa | 0 mm | - | 317 W/m² | - |
| 1777555698 | 12.78° C | 63% | 1020.4 hPa | 0 mm | - | 302 W/m² | - |
| 1777555395 | 12.78° C | 63% | 1020.1 hPa | 0 mm | - | 286 W/m² | - |
| 1777555091 | 12.78° C | 65% | 1020.4 hPa | 0 mm | - | 271 W/m² | - |
| 1777554789 | 12.22° C | 68% | 1020.3 hPa | 0 mm | - | 256 W/m² | - |
| 1777554486 | 12.22° C | 67% | 1020.3 hPa | 0 mm | - | 242 W/m² | - |
| 1777554183 | 12.22° C | 68% | 1020.3 hPa | 0 mm | - | 227 W/m² | - |
| 1777553879 | 12.22° C | 69% | 1020.2 hPa | 0 mm | - | 212 W/m² | - |
| 1777553575 | 11.67° C | 70% | 1020.2 hPa | 0 mm | - | 197 W/m² | - |
| 1777553271 | 12.22° C | 73% | 1020.2 hPa | 0 mm | - | 183 W/m² | - |
| 1777552968 | 11.67° C | 78% | 1020.4 hPa | 0 mm | - | 168 W/m² | - |
* Rain latest hour (hover to see other rain measurements)
** Current wind speed in m/s (hover to see current wind gust speed)